sensor_id;sensor_type;location;lat;lon;timestamp;P1;durP1;ratioP1;P2;durP2;ratioP2
17564;SDS011;62994;52.126;5.596;2023-03-01T00:00:05;7.93;;;5.97;;
17564;SDS011;62994;52.126;5.596;2023-03-01T00:02:35;8.83;;;6.33;;
17564;SDS011;62994;52.126;5.596;2023-03-01T00:05:03;8.00;;;5.60;;
17564;SDS011;62994;52.126;5.596;2023-03-01T00:07:33;6.10;;;5.50;;
17564;SDS011;62994;52.126;5.596;2023-03-01T00:10:00;8.07;;;5.80;;
17564;SDS011;62994;52.126;5.596;2023-03-01T00:12:27;10.67;;;6.00;;
17564;SDS011;62994;52.126;5.596;2023-03-01T00:14:54;14.77;;;6.10;;
17564;SDS011;62994;52.126;5.596;2023-03-01T00:17:23;6.90;;;6.23;;
17564;SDS011;62994;52.126;5.596;2023-03-01T00:19:52;10.13;;;5.97;;
17564;SDS011;62994;52.126;5.596;2023-03-01T00:22:19;6.97;;;5.87;;
17564;SDS011;62994;52.126;5.596;2023-03-01T00:24:46;9.83;;;6.90;;
17564;SDS011;62994;52.126;5.596;2023-03-01T00:27:13;7.60;;;6.57;;
17564;SDS011;62994;52.126;5.596;2023-03-01T00:29:40;7.73;;;6.07;;
17564;SDS011;62994;52.126;5.596;2023-03-01T00:32:07;12.03;;;6.83;;
17564;SDS011;62994;52.126;5.596;2023-03-01T00:34:35;13.30;;;8.43;;
17564;SDS011;62994;52.126;5.596;2023-03-01T00:37:07;12.17;;;6.70;;
17564;SDS011;62994;52.126;5.596;2023-03-01T00:39:34;19.33;;;7.33;;
17564;SDS011;62994;52.126;5.596;2023-03-01T00:42:01;7.87;;;6.87;;
17564;SDS011;62994;52.126;5.596;2023-03-01T00:44:29;10.67;;;6.47;;
17564;SDS011;62994;52.126;5.596;2023-03-01T00:46:56;9.63;;;6.67;;
17564;SDS011;62994;52.126;5.596;2023-03-01T00:49:23;10.30;;;6.67;;
17564;SDS011;62994;52.126;5.596;2023-03-01T00:51:53;7.50;;;6.27;;
17564;SDS011;62994;52.126;5.596;2023-03-01T00:54:21;10.03;;;6.87;;
17564;SDS011;62994;52.126;5.596;2023-03-01T00:56:48;9.27;;;6.17;;
17564;SDS011;62994;52.126;5.596;2023-03-01T00:59:15;9.90;;;6.30;;
17564;SDS011;62994;52.126;5.596;2023-03-01T01:01:47;8.50;;;6.33;;
17564;SDS011;62994;52.126;5.596;2023-03-01T01:04:14;6.47;;;5.83;;
17564;SDS011;62994;52.126;5.596;2023-03-01T01:06:42;10.10;;;6.43;;
17564;SDS011;62994;52.126;5.596;2023-03-01T01:09:11;10.90;;;5.87;;
17564;SDS011;62994;52.126;5.596;2023-03-01T01:11:45;7.70;;;5.93;;
17564;SDS011;62994;52.126;5.596;2023-03-01T01:14:16;10.73;;;6.50;;
17564;SDS011;62994;52.126;5.596;2023-03-01T01:16:43;7.13;;;6.30;;
17564;SDS011;62994;52.126;5.596;2023-03-01T01:19:11;6.87;;;5.83;;
17564;SDS011;62994;52.126;5.596;2023-03-01T01:21:39;7.30;;;6.50;;
17564;SDS011;62994;52.126;5.596;2023-03-01T01:24:08;9.43;;;6.17;;
17564;SDS011;62994;52.126;5.596;2023-03-01T01:26:39;9.37;;;5.70;;
17564;SDS011;62994;52.126;5.596;2023-03-01T01:29:10;7.63;;;6.10;;
17564;SDS011;62994;52.126;5.596;2023-03-01T01:31:38;8.60;;;5.90;;
17564;SDS011;62994;52.126;5.596;2023-03-01T01:34:06;6.80;;;5.80;;
17564;SDS011;62994;52.126;5.596;2023-03-01T01:36:38;8.67;;;6.07;;
17564;SDS011;62994;52.126;5.596;2023-03-01T01:39:06;6.40;;;5.90;;
17564;SDS011;62994;52.126;5.596;2023-03-01T01:41:38;8.60;;;5.83;;
17564;SDS011;62994;52.126;5.596;2023-03-01T01:44:11;10.47;;;5.97;;
17564;SDS011;62994;52.126;5.596;2023-03-01T01:46:44;6.97;;;6.03;;
17564;SDS011;62994;52.126;5.596;2023-03-01T01:49:19;6.27;;;5.27;;
17564;SDS011;62994;52.126;5.596;2023-03-01T01:51:51;7.03;;;5.73;;
17564;SDS011;62994;52.126;5.596;2023-03-01T01:54:25;8.80;;;5.70;;
17564;SDS011;62994;52.126;5.596;2023-03-01T01:56:58;8.80;;;5.53;;
17564;SDS011;62994;52.126;5.596;2023-03-01T01:59:29;7.93;;;5.50;;
17564;SDS011;62994;52.126;5.596;2023-03-01T02:01:57;5.40;;;4.97;;
17564;SDS011;62994;52.126;5.596;2023-03-01T02:04:27;6.37;;;5.77;;
17564;SDS011;62994;52.126;5.596;2023-03-01T02:06:58;6.37;;;5.33;;
17564;SDS011;62994;52.126;5.596;2023-03-01T02:09:31;9.27;;;5.47;;
17564;SDS011;62994;52.126;5.596;2023-03-01T02:11:59;6.03;;;5.57;;
17564;SDS011;62994;52.126;5.596;2023-03-01T02:14:27;6.07;;;5.40;;
17564;SDS011;62994;52.126;5.596;2023-03-01T02:16:55;6.50;;;5.13;;
17564;SDS011;62994;52.126;5.596;2023-03-01T02:19:26;6.53;;;5.90;;
17564;SDS011;62994;52.126;5.596;2023-03-01T02:22:17;8.90;;;6.47;;
17564;SDS011;62994;52.126;5.596;2023-03-01T02:24:50;6.37;;;5.87;;
17564;SDS011;62994;52.126;5.596;2023-03-01T02:27:26;6.33;;;5.73;;
17564;SDS011;62994;52.126;5.596;2023-03-01T02:30:00;8.20;;;5.50;;
17564;SDS011;62994;52.126;5.596;2023-03-01T02:32:28;6.00;;;5.20;;
17564;SDS011;62994;52.126;5.596;2023-03-01T02:34:55;6.20;;;5.20;;
17564;SDS011;62994;52.126;5.596;2023-03-01T02:37:23;6.23;;;5.63;;
17564;SDS011;62994;52.126;5.596;2023-03-01T02:39:53;5.73;;;5.23;;
17564;SDS011;62994;52.126;5.596;2023-03-01T02:42:30;5.70;;;5.27;;
17564;SDS011;62994;52.126;5.596;2023-03-01T02:45:08;13.30;;;5.73;;
17564;SDS011;62994;52.126;5.596;2023-03-01T02:47:36;6.93;;;5.70;;
17564;SDS011;62994;52.126;5.596;2023-03-01T02:50:08;6.13;;;5.20;;
17564;SDS011;62994;52.126;5.596;2023-03-01T02:52:43;6.17;;;5.60;;
17564;SDS011;62994;52.126;5.596;2023-03-01T02:55:14;5.27;;;4.87;;
17564;SDS011;62994;52.126;5.596;2023-03-01T02:57:44;6.57;;;5.90;;
17564;SDS011;62994;52.126;5.596;2023-03-01T03:00:18;10.53;;;6.23;;
17564;SDS011;62994;52.126;5.596;2023-03-01T03:02:47;5.97;;;5.57;;
17564;SDS011;62994;52.126;5.596;2023-03-01T03:05:17;6.10;;;5.50;;
17564;SDS011;62994;52.126;5.596;2023-03-01T03:07:46;5.90;;;5.40;;
17564;SDS011;62994;52.126;5.596;2023-03-01T03:10:14;6.40;;;5.77;;
17564;SDS011;62994;52.126;5.596;2023-03-01T03:12:47;6.43;;;5.83;;
17564;SDS011;62994;52.126;5.596;2023-03-01T03:15:17;5.37;;;4.97;;
17564;SDS011;62994;52.126;5.596;2023-03-01T03:17:45;8.33;;;6.10;;
17564;SDS011;62994;52.126;5.596;2023-03-01T03:20:13;7.78;;;6.75;;
17564;SDS011;62994;52.126;5.596;2023-03-01T03:22:44;6.10;;;5.50;;
17564;SDS011;62994;52.126;5.596;2023-03-01T03:25:12;6.13;;;5.63;;
17564;SDS011;62994;52.126;5.596;2023-03-01T03:27:40;5.90;;;5.40;;
17564;SDS011;62994;52.126;5.596;2023-03-01T03:30:12;6.93;;;5.50;;
17564;SDS011;62994;52.126;5.596;2023-03-01T03:32:43;5.90;;;5.40;;
17564;SDS011;62994;52.126;5.596;2023-03-01T03:35:17;9.93;;;5.83;;
17564;SDS011;62994;52.126;5.596;2023-03-01T03:37:45;6.93;;;5.33;;
17564;SDS011;62994;52.126;5.596;2023-03-01T03:40:32;7.00;;;5.57;;
17564;SDS011;62994;52.126;5.596;2023-03-01T03:43:00;7.03;;;6.17;;
17564;SDS011;62994;52.126;5.596;2023-03-01T03:45:32;5.70;;;5.30;;
17564;SDS011;62994;52.126;5.596;2023-03-01T03:48:01;6.73;;;6.03;;
17564;SDS011;62994;52.126;5.596;2023-03-01T03:50:30;7.17;;;6.53;;
17564;SDS011;62994;52.126;5.596;2023-03-01T03:52:57;7.27;;;6.47;;
17564;SDS011;62994;52.126;5.596;2023-03-01T03:55:27;10.50;;;5.97;;
17564;SDS011;62994;52.126;5.596;2023-03-01T03:57:56;6.10;;;5.50;;
17564;SDS011;62994;52.126;5.596;2023-03-01T04:00:27;8.93;;;5.77;;
17564;SDS011;62994;52.126;5.596;2023-03-01T04:02:54;11.03;;;5.80;;
17564;SDS011;62994;52.126;5.596;2023-03-01T04:05:23;7.03;;;6.33;;
17564;SDS011;62994;52.126;5.596;2023-03-01T04:07:51;6.43;;;5.70;;
17564;SDS011;62994;52.126;5.596;2023-03-01T04:10:33;8.47;;;6.23;;
17564;SDS011;62994;52.126;5.596;2023-03-01T04:13:02;7.80;;;6.37;;
17564;SDS011;62994;52.126;5.596;2023-03-01T04:15:30;7.33;;;6.03;;
17564;SDS011;62994;52.126;5.596;2023-03-01T04:17:57;5.80;;;5.30;;
17564;SDS011;62994;52.126;5.596;2023-03-01T04:20:28;6.73;;;6.03;;
17564;SDS011;62994;52.126;5.596;2023-03-01T04:22:57;6.43;;;5.83;;
17564;SDS011;62994;52.126;5.596;2023-03-01T04:25:26;6.47;;;5.87;;
17564;SDS011;62994;52.126;5.596;2023-03-01T04:27:53;6.47;;;5.23;;
17564;SDS011;62994;52.126;5.596;2023-03-01T04:30:20;10.40;;;5.40;;
17564;SDS011;62994;52.126;5.596;2023-03-01T04:32:50;6.17;;;5.27;;
17564;SDS011;62994;52.126;5.596;2023-03-01T04:35:17;6.27;;;5.67;;
17564;SDS011;62994;52.126;5.596;2023-03-01T04:37:47;5.23;;;4.83;;
17564;SDS011;62994;52.126;5.596;2023-03-01T04:40:14;9.13;;;5.13;;
17564;SDS011;62994;52.126;5.596;2023-03-01T04:42:42;6.40;;;5.57;;
17564;SDS011;62994;52.126;5.596;2023-03-01T04:45:09;6.30;;;5.57;;
17564;SDS011;62994;52.126;5.596;2023-03-01T04:47:38;5.90;;;5.43;;
17564;SDS011;62994;52.126;5.596;2023-03-01T04:50:06;10.00;;;5.57;;
17564;SDS011;62994;52.126;5.596;2023-03-01T04:52:34;8.80;;;5.63;;
17564;SDS011;62994;52.126;5.596;2023-03-01T04:55:04;7.03;;;6.00;;
17564;SDS011;62994;52.126;5.596;2023-03-01T04:57:32;6.13;;;5.50;;
17564;SDS011;62994;52.126;5.596;2023-03-01T04:59:59;5.33;;;4.80;;
17564;SDS011;62994;52.126;5.596;2023-03-01T05:02:26;6.83;;;6.00;;
17564;SDS011;62994;52.126;5.596;2023-03-01T05:04:54;8.67;;;5.93;;
17564;SDS011;62994;52.126;5.596;2023-03-01T05:07:22;7.30;;;5.60;;
17564;SDS011;62994;52.126;5.596;2023-03-01T05:09:51;5.77;;;5.17;;
17564;SDS011;62994;52.126;5.596;2023-03-01T05:12:20;10.97;;;5.80;;
17564;SDS011;62994;52.126;5.596;2023-03-01T05:14:47;6.63;;;5.13;;
17564;SDS011;62994;52.126;5.596;2023-03-01T05:17:16;6.80;;;5.03;;
17564;SDS011;62994;52.126;5.596;2023-03-01T05:19:43;6.60;;;5.20;;
17564;SDS011;62994;52.126;5.596;2023-03-01T05:22:11;6.50;;;5.23;;
17564;SDS011;62994;52.126;5.596;2023-03-01T05:24:38;5.53;;;5.10;;
17564;SDS011;62994;52.126;5.596;2023-03-01T05:27:05;5.77;;;5.20;;
17564;SDS011;62994;52.126;5.596;2023-03-01T05:29:34;8.37;;;5.80;;
17564;SDS011;62994;52.126;5.596;2023-03-01T05:32:01;7.03;;;5.50;;
17564;SDS011;62994;52.126;5.596;2023-03-01T05:34:29;11.10;;;6.20;;
17564;SDS011;62994;52.126;5.596;2023-03-01T05:36:58;11.20;;;6.10;;
17564;SDS011;62994;52.126;5.596;2023-03-01T05:39:28;5.83;;;5.20;;
17564;SDS011;62994;52.126;5.596;2023-03-01T05:41:57;8.40;;;7.53;;
17564;SDS011;62994;52.126;5.596;2023-03-01T05:44:26;8.27;;;7.00;;
17564;SDS011;62994;52.126;5.596;2023-03-01T05:46:55;6.20;;;5.60;;
17564;SDS011;62994;52.126;5.596;2023-03-01T05:49:22;8.27;;;5.20;;
17564;SDS011;62994;52.126;5.596;2023-03-01T05:51:50;6.60;;;5.83;;
17564;SDS011;62994;52.126;5.596;2023-03-01T05:54:19;6.50;;;5.83;;
17564;SDS011;62994;52.126;5.596;2023-03-01T05:56:47;7.07;;;6.00;;
17564;SDS011;62994;52.126;5.596;2023-03-01T05:59:14;5.93;;;5.33;;
17564;SDS011;62994;52.126;5.596;2023-03-01T06:01:42;8.53;;;6.17;;
17564;SDS011;62994;52.126;5.596;2023-03-01T06:04:13;10.43;;;6.43;;
17564;SDS011;62994;52.126;5.596;2023-03-01T06:06:42;7.90;;;5.77;;
17564;SDS011;62994;52.126;5.596;2023-03-01T06:09:09;6.43;;;5.47;;
17564;SDS011;62994;52.126;5.596;2023-03-01T06:11:36;6.47;;;5.97;;
17564;SDS011;62994;52.126;5.596;2023-03-01T06:14:04;7.90;;;6.10;;
17564;SDS011;62994;52.126;5.596;2023-03-01T06:16:32;10.60;;;6.10;;
17564;SDS011;62994;52.126;5.596;2023-03-01T06:19:00;8.27;;;6.30;;
17564;SDS011;62994;52.126;5.596;2023-03-01T06:21:29;6.80;;;6.13;;
17564;SDS011;62994;52.126;5.596;2023-03-01T06:23:56;6.50;;;5.87;;
17564;SDS011;62994;52.126;5.596;2023-03-01T06:26:28;7.83;;;5.90;;
17564;SDS011;62994;52.126;5.596;2023-03-01T06:28:55;7.00;;;6.30;;
17564;SDS011;62994;52.126;5.596;2023-03-01T06:31:22;5.63;;;5.10;;
17564;SDS011;62994;52.126;5.596;2023-03-01T06:33:49;7.00;;;5.93;;
17564;SDS011;62994;52.126;5.596;2023-03-01T06:36:16;7.23;;;5.80;;
17564;SDS011;62994;52.126;5.596;2023-03-01T06:38:47;6.60;;;5.97;;
17564;SDS011;62994;52.126;5.596;2023-03-01T06:41:14;6.53;;;5.73;;
17564;SDS011;62994;52.126;5.596;2023-03-01T06:43:41;6.17;;;5.57;;
17564;SDS011;62994;52.126;5.596;2023-03-01T06:46:08;6.67;;;6.00;;
17564;SDS011;62994;52.126;5.596;2023-03-01T06:48:36;9.43;;;5.53;;
17564;SDS011;62994;52.126;5.596;2023-03-01T06:51:05;6.93;;;5.67;;
17564;SDS011;62994;52.126;5.596;2023-03-01T06:53:34;6.77;;;5.17;;
17564;SDS011;62994;52.126;5.596;2023-03-01T06:56:07;7.63;;;6.20;;
17564;SDS011;62994;52.126;5.596;2023-03-01T06:58:35;6.70;;;5.93;;
17564;SDS011;62994;52.126;5.596;2023-03-01T07:01:04;11.33;;;6.40;;
17564;SDS011;62994;52.126;5.596;2023-03-01T07:03:32;7.57;;;6.23;;
17564;SDS011;62994;52.126;5.596;2023-03-01T07:05:59;6.60;;;5.90;;
17564;SDS011;62994;52.126;5.596;2023-03-01T07:08:26;9.20;;;6.93;;
17564;SDS011;62994;52.126;5.596;2023-03-01T07:10:57;6.97;;;5.67;;
17564;SDS011;62994;52.126;5.596;2023-03-01T07:13:29;7.97;;;6.80;;
17564;SDS011;62994;52.126;5.596;2023-03-01T07:16:00;12.77;;;7.23;;
17564;SDS011;62994;52.126;5.596;2023-03-01T07:18:27;11.87;;;6.67;;
17564;SDS011;62994;52.126;5.596;2023-03-01T07:20:54;9.33;;;6.37;;
17564;SDS011;62994;52.126;5.596;2023-03-01T07:23:21;11.20;;;7.33;;
17564;SDS011;62994;52.126;5.596;2023-03-01T07:25:52;7.47;;;6.73;;
17564;SDS011;62994;52.126;5.596;2023-03-01T07:28:19;12.33;;;7.27;;
17564;SDS011;62994;52.126;5.596;2023-03-01T07:31:02;9.87;;;7.90;;
17564;SDS011;62994;52.126;5.596;2023-03-01T07:33:30;15.50;;;7.50;;
17564;SDS011;62994;52.126;5.596;2023-03-01T07:35:57;14.13;;;8.20;;
17564;SDS011;62994;52.126;5.596;2023-03-01T07:38:24;11.50;;;8.20;;
17564;SDS011;62994;52.126;5.596;2023-03-01T07:40:57;12.70;;;7.90;;
17564;SDS011;62994;52.126;5.596;2023-03-01T07:43:25;18.67;;;8.57;;
17564;SDS011;62994;52.126;5.596;2023-03-01T07:45:53;13.13;;;8.23;;
17564;SDS011;62994;52.126;5.596;2023-03-01T07:48:22;10.23;;;7.40;;
17564;SDS011;62994;52.126;5.596;2023-03-01T07:50:57;12.03;;;7.80;;
17564;SDS011;62994;52.126;5.596;2023-03-01T07:53:25;13.00;;;7.30;;
17564;SDS011;62994;52.126;5.596;2023-03-01T07:55:59;12.87;;;7.43;;
17564;SDS011;62994;52.126;5.596;2023-03-01T07:58:27;11.93;;;7.70;;
17564;SDS011;62994;52.126;5.596;2023-03-01T08:00:54;11.37;;;7.37;;
17564;SDS011;62994;52.126;5.596;2023-03-01T08:03:23;8.93;;;7.13;;
17564;SDS011;62994;52.126;5.596;2023-03-01T08:05:50;12.87;;;7.17;;
17564;SDS011;62994;52.126;5.596;2023-03-01T08:08:17;11.63;;;7.00;;
17564;SDS011;62994;52.126;5.596;2023-03-01T08:10:45;9.90;;;6.77;;
17564;SDS011;62994;52.126;5.596;2023-03-01T08:13:12;11.90;;;6.90;;
17564;SDS011;62994;52.126;5.596;2023-03-01T08:15:39;12.73;;;6.47;;
17564;SDS011;62994;52.126;5.596;2023-03-01T08:18:06;9.97;;;7.37;;
17564;SDS011;62994;52.126;5.596;2023-03-01T08:20:35;8.43;;;7.53;;
17564;SDS011;62994;52.126;5.596;2023-03-01T08:23:02;7.57;;;6.77;;
17564;SDS011;62994;52.126;5.596;2023-03-01T08:25:29;8.50;;;6.30;;
17564;SDS011;62994;52.126;5.596;2023-03-01T08:27:57;8.07;;;6.27;;
17564;SDS011;62994;52.126;5.596;2023-03-01T08:30:24;7.67;;;6.63;;
17564;SDS011;62994;52.126;5.596;2023-03-01T08:32:51;8.20;;;6.97;;
17564;SDS011;62994;52.126;5.596;2023-03-01T08:35:19;6.87;;;6.23;;
17564;SDS011;62994;52.126;5.596;2023-03-01T08:37:48;7.87;;;6.40;;
17564;SDS011;62994;52.126;5.596;2023-03-01T08:40:17;8.90;;;7.00;;
17564;SDS011;62994;52.126;5.596;2023-03-01T08:42:44;7.17;;;6.60;;
17564;SDS011;62994;52.126;5.596;2023-03-01T08:45:12;6.90;;;6.20;;
17564;SDS011;62994;52.126;5.596;2023-03-01T08:47:43;9.17;;;6.57;;
17564;SDS011;62994;52.126;5.596;2023-03-01T08:50:11;10.40;;;6.37;;
17564;SDS011;62994;52.126;5.596;2023-03-01T08:52:38;6.87;;;6.30;;
17564;SDS011;62994;52.126;5.596;2023-03-01T08:55:09;11.47;;;6.83;;
17564;SDS011;62994;52.126;5.596;2023-03-01T08:57:41;7.07;;;6.37;;
17564;SDS011;62994;52.126;5.596;2023-03-01T09:02:42;8.13;;;7.03;;
17564;SDS011;62994;52.126;5.596;2023-03-01T09:05:09;8.30;;;7.40;;
17564;SDS011;62994;52.126;5.596;2023-03-01T09:07:36;8.03;;;7.20;;
17564;SDS011;62994;52.126;5.596;2023-03-01T09:10:04;7.10;;;6.47;;
17564;SDS011;62994;52.126;5.596;2023-03-01T09:12:33;6.90;;;6.17;;
17564;SDS011;62994;52.126;5.596;2023-03-01T09:15:00;6.40;;;5.80;;
17564;SDS011;62994;52.126;5.596;2023-03-01T09:17:28;7.67;;;6.80;;
17564;SDS011;62994;52.126;5.596;2023-03-01T09:19:55;7.67;;;6.40;;
17564;SDS011;62994;52.126;5.596;2023-03-01T09:22:27;6.93;;;6.17;;
17564;SDS011;62994;52.126;5.596;2023-03-01T09:24:54;6.13;;;5.57;;
17564;SDS011;62994;52.126;5.596;2023-03-01T09:27:24;5.27;;;4.80;;
17564;SDS011;62994;52.126;5.596;2023-03-01T09:29:57;7.07;;;5.17;;
17564;SDS011;62994;52.126;5.596;2023-03-01T09:32:24;5.70;;;4.57;;
17564;SDS011;62994;52.126;5.596;2023-03-01T09:34:51;4.47;;;4.13;;
17564;SDS011;62994;52.126;5.596;2023-03-01T09:37:29;4.97;;;4.37;;
17564;SDS011;62994;52.126;5.596;2023-03-01T09:40:02;5.20;;;4.80;;
17564;SDS011;62994;52.126;5.596;2023-03-01T09:42:32;5.37;;;4.87;;
17564;SDS011;62994;52.126;5.596;2023-03-01T09:45:05;4.70;;;4.30;;
17564;SDS011;62994;52.126;5.596;2023-03-01T09:47:36;8.60;;;5.40;;
17564;SDS011;62994;52.126;5.596;2023-03-01T09:50:04;4.73;;;4.43;;
17564;SDS011;62994;52.126;5.596;2023-03-01T09:52:39;5.57;;;5.13;;
17564;SDS011;62994;52.126;5.596;2023-03-01T09:55:09;5.20;;;4.80;;
17564;SDS011;62994;52.126;5.596;2023-03-01T09:57:41;4.43;;;4.13;;
17564;SDS011;62994;52.126;5.596;2023-03-01T10:00:24;4.83;;;3.67;;
17564;SDS011;62994;52.126;5.596;2023-03-01T10:02:58;3.57;;;3.13;;
17564;SDS011;62994;52.126;5.596;2023-03-01T10:05:36;4.07;;;3.83;;
17564;SDS011;62994;52.126;5.596;2023-03-01T10:11:01;3.60;;;3.30;;
17564;SDS011;62994;52.126;5.596;2023-03-01T10:13:31;3.60;;;3.30;;
17564;SDS011;62994;52.126;5.596;2023-03-01T10:16:11;3.47;;;3.28;;
17564;SDS011;62994;52.126;5.596;2023-03-01T10:18:43;3.13;;;2.80;;
17564;SDS011;62994;52.126;5.596;2023-03-01T10:21:19;4.50;;;2.87;;
17564;SDS011;62994;52.126;5.596;2023-03-01T10:23:46;4.17;;;3.77;;
17564;SDS011;62994;52.126;5.596;2023-03-01T10:26:21;4.30;;;3.38;;
17564;SDS011;62994;52.126;5.596;2023-03-01T10:29:07;5.85;;;3.35;;
17564;SDS011;62994;52.126;5.596;2023-03-01T10:31:41;3.07;;;2.83;;
17564;SDS011;62994;52.126;5.596;2023-03-01T10:34:11;3.40;;;3.10;;
17564;SDS011;62994;52.126;5.596;2023-03-01T10:36:40;3.10;;;2.90;;
17564;SDS011;62994;52.126;5.596;2023-03-01T10:39:13;6.50;;;3.38;;
17564;SDS011;62994;52.126;5.596;2023-03-01T10:41:55;3.20;;;3.00;;
17564;SDS011;62994;52.126;5.596;2023-03-01T10:47:20;2.90;;;2.70;;
17564;SDS011;62994;52.126;5.596;2023-03-01T10:50:01;4.55;;;3.47;;
17564;SDS011;62994;52.126;5.596;2023-03-01T10:52:31;3.20;;;3.00;;
17564;SDS011;62994;52.126;5.596;2023-03-01T10:55:02;7.55;;;3.40;;
17564;SDS011;62994;52.126;5.596;2023-03-01T10:58:05;3.10;;;2.90;;
17564;SDS011;62994;52.126;5.596;2023-03-01T11:00:34;3.00;;;2.70;;
17564;SDS011;62994;52.126;5.596;2023-03-01T11:03:18;2.85;;;2.65;;
17564;SDS011;62994;52.126;5.596;2023-03-01T11:06:05;3.58;;;3.28;;
17564;SDS011;62994;52.126;5.596;2023-03-01T11:08:46;6.82;;;3.40;;
17564;SDS011;62994;52.126;5.596;2023-03-01T11:11:18;3.15;;;2.95;;
17564;SDS011;62994;52.126;5.596;2023-03-01T11:13:52;3.35;;;3.05;;
17564;SDS011;62994;52.126;5.596;2023-03-01T11:16:29;3.15;;;2.95;;
17564;SDS011;62994;52.126;5.596;2023-03-01T11:19:07;3.20;;;2.90;;
17564;SDS011;62994;52.126;5.596;2023-03-01T11:21:43;3.25;;;3.05;;
17564;SDS011;62994;52.126;5.596;2023-03-01T11:24:18;3.20;;;3.00;;
17564;SDS011;62994;52.126;5.596;2023-03-01T11:26:56;4.95;;;3.50;;
17564;SDS011;62994;52.126;5.596;2023-03-01T11:29:30;2.95;;;2.75;;
17564;SDS011;62994;52.126;5.596;2023-03-01T11:32:05;3.40;;;3.20;;
17564;SDS011;62994;52.126;5.596;2023-03-01T11:34:38;3.80;;;3.50;;
17564;SDS011;62994;52.126;5.596;2023-03-01T11:37:12;3.20;;;2.80;;
17564;SDS011;62994;52.126;5.596;2023-03-01T11:39:52;3.00;;;2.85;;
17564;SDS011;62994;52.126;5.596;2023-03-01T11:42:26;3.50;;;3.20;;
17564;SDS011;62994;52.126;5.596;2023-03-01T11:45:06;2.83;;;2.63;;
17564;SDS011;62994;52.126;5.596;2023-03-01T11:47:54;5.30;;;3.53;;
17564;SDS011;62994;52.126;5.596;2023-03-01T11:50:37;3.50;;;3.20;;
17564;SDS011;62994;52.126;5.596;2023-03-01T11:53:21;3.80;;;3.50;;
17564;SDS011;62994;52.126;5.596;2023-03-01T11:56:09;3.80;;;3.50;;
17564;SDS011;62994;52.126;5.596;2023-03-01T11:58:53;3.33;;;2.88;;
17564;SDS011;62994;52.126;5.596;2023-03-01T12:01:33;2.90;;;2.70;;
17564;SDS011;62994;52.126;5.596;2023-03-01T12:07:26;3.88;;;3.45;;
17564;SDS011;62994;52.126;5.596;2023-03-01T12:10:12;3.28;;;3.08;;
17564;SDS011;62994;52.126;5.596;2023-03-01T12:12:55;3.75;;;3.08;;
17564;SDS011;62994;52.126;5.596;2023-03-01T12:15:45;3.30;;;3.10;;
17564;SDS011;62994;52.126;5.596;2023-03-01T12:18:48;3.15;;;2.95;;
17564;SDS011;62994;52.126;5.596;2023-03-01T12:21:39;3.13;;;2.92;;
17564;SDS011;62994;52.126;5.596;2023-03-01T12:24:34;3.20;;;2.90;;
17564;SDS011;62994;52.126;5.596;2023-03-01T12:27:27;3.03;;;2.83;;
17564;SDS011;62994;52.126;5.596;2023-03-01T12:30:15;3.40;;;3.20;;
17564;SDS011;62994;52.126;5.596;2023-03-01T12:32:55;4.22;;;3.55;;
17564;SDS011;62994;52.126;5.596;2023-03-01T12:35:41;5.95;;;3.70;;
17564;SDS011;62994;52.126;5.596;2023-03-01T12:38:37;4.72;;;3.60;;
17564;SDS011;62994;52.126;5.596;2023-03-01T12:41:24;3.83;;;3.50;;
17564;SDS011;62994;52.126;5.596;2023-03-01T12:44:10;3.78;;;3.45;;
17564;SDS011;62994;52.126;5.596;2023-03-01T12:46:54;3.30;;;3.10;;
17564;SDS011;62994;52.126;5.596;2023-03-01T12:49:34;3.25;;;3.05;;
17564;SDS011;62994;52.126;5.596;2023-03-01T12:52:09;3.30;;;3.00;;
17564;SDS011;62994;52.126;5.596;2023-03-01T12:54:39;3.22;;;2.92;;
17564;SDS011;62994;52.126;5.596;2023-03-01T12:57:09;4.70;;;2.65;;
17564;SDS011;62994;52.126;5.596;2023-03-01T12:59:46;3.38;;;3.10;;
17564;SDS011;62994;52.126;5.596;2023-03-01T13:02:22;3.90;;;3.47;;
17564;SDS011;62994;52.126;5.596;2023-03-01T13:04:57;3.00;;;2.80;;
17564;SDS011;62994;52.126;5.596;2023-03-01T13:07:35;2.90;;;2.70;;
17564;SDS011;62994;52.126;5.596;2023-03-01T13:10:11;3.30;;;3.10;;
17564;SDS011;62994;52.126;5.596;2023-03-01T13:12:52;4.75;;;2.95;;
17564;SDS011;62994;52.126;5.596;2023-03-01T13:15:40;3.20;;;3.00;;
17564;SDS011;62994;52.126;5.596;2023-03-01T13:18:27;3.47;;;2.67;;
17564;SDS011;62994;52.126;5.596;2023-03-01T13:20:59;3.70;;;3.40;;
17564;SDS011;62994;52.126;5.596;2023-03-01T13:23:30;3.40;;;3.13;;
17564;SDS011;62994;52.126;5.596;2023-03-01T13:26:06;3.78;;;3.42;;
17564;SDS011;62994;52.126;5.596;2023-03-01T13:34:42;3.28;;;3.00;;
17564;SDS011;62994;52.126;5.596;2023-03-01T13:39:56;2.80;;;2.60;;
17564;SDS011;62994;52.126;5.596;2023-03-01T13:42:40;3.13;;;2.92;;
17564;SDS011;62994;52.126;5.596;2023-03-01T13:48:02;2.85;;;2.75;;
17564;SDS011;62994;52.126;5.596;2023-03-01T13:50:38;3.45;;;2.50;;
17564;SDS011;62994;52.126;5.596;2023-03-01T13:53:16;2.88;;;2.67;;
17564;SDS011;62994;52.126;5.596;2023-03-01T13:55:46;3.17;;;2.85;;
17564;SDS011;62994;52.126;5.596;2023-03-01T13:58:22;4.60;;;3.17;;
17564;SDS011;62994;52.126;5.596;2023-03-01T14:00:56;6.05;;;3.33;;
17564;SDS011;62994;52.126;5.596;2023-03-01T14:03:27;3.20;;;3.00;;
17564;SDS011;62994;52.126;5.596;2023-03-01T14:08:46;3.17;;;2.97;;
17564;SDS011;62994;52.126;5.596;2023-03-01T14:14:36;7.43;;;3.13;;
17564;SDS011;62994;52.126;5.596;2023-03-01T14:17:20;4.53;;;3.95;;
17564;SDS011;62994;52.126;5.596;2023-03-01T14:20:17;3.25;;;3.03;;
17564;SDS011;62994;52.126;5.596;2023-03-01T14:22:46;3.75;;;3.28;;
17564;SDS011;62994;52.126;5.596;2023-03-01T14:25:17;3.15;;;2.90;;
17564;SDS011;62994;52.126;5.596;2023-03-01T14:27:51;5.50;;;2.83;;
17564;SDS011;62994;52.126;5.596;2023-03-01T14:30:27;2.90;;;2.58;;
17564;SDS011;62994;52.126;5.596;2023-03-01T14:33:00;3.28;;;3.03;;
17564;SDS011;62994;52.126;5.596;2023-03-01T14:35:29;3.25;;;3.05;;
17564;SDS011;62994;52.126;5.596;2023-03-01T14:37:58;3.40;;;3.20;;
17564;SDS011;62994;52.126;5.596;2023-03-01T14:40:27;3.95;;;3.30;;
17564;SDS011;62994;52.126;5.596;2023-03-01T14:42:56;3.20;;;3.00;;
17564;SDS011;62994;52.126;5.596;2023-03-01T14:45:26;3.67;;;3.38;;
17564;SDS011;62994;52.126;5.596;2023-03-01T14:47:55;3.72;;;3.15;;
17564;SDS011;62994;52.126;5.596;2023-03-01T14:50:40;3.95;;;3.65;;
17564;SDS011;62994;52.126;5.596;2023-03-01T14:53:14;3.42;;;3.22;;
17564;SDS011;62994;52.126;5.596;2023-03-01T14:55:46;3.70;;;3.50;;
17564;SDS011;62994;52.126;5.596;2023-03-01T14:58:18;3.78;;;3.40;;
17564;SDS011;62994;52.126;5.596;2023-03-01T15:00:48;4.25;;;3.33;;
17564;SDS011;62994;52.126;5.596;2023-03-01T15:03:23;3.45;;;3.17;;
17564;SDS011;62994;52.126;5.596;2023-03-01T15:05:55;3.20;;;2.97;;
17564;SDS011;62994;52.126;5.596;2023-03-01T15:08:24;3.50;;;3.30;;
17564;SDS011;62994;52.126;5.596;2023-03-01T15:11:02;3.50;;;3.30;;
17564;SDS011;62994;52.126;5.596;2023-03-01T15:13:31;3.70;;;3.30;;
17564;SDS011;62994;52.126;5.596;2023-03-01T15:16:03;5.22;;;2.97;;
17564;SDS011;62994;52.126;5.596;2023-03-01T15:18:37;3.53;;;3.33;;
17564;SDS011;62994;52.126;5.596;2023-03-01T15:21:15;3.20;;;3.00;;
17564;SDS011;62994;52.126;5.596;2023-03-01T15:23:47;4.18;;;3.05;;
17564;SDS011;62994;52.126;5.596;2023-03-01T15:26:21;3.40;;;3.05;;
17564;SDS011;62994;52.126;5.596;2023-03-01T15:28:51;3.47;;;3.17;;
17564;SDS011;62994;52.126;5.596;2023-03-01T15:31:23;3.17;;;2.97;;
17564;SDS011;62994;52.126;5.596;2023-03-01T15:33:58;3.72;;;3.13;;
17564;SDS011;62994;52.126;5.596;2023-03-01T15:36:44;3.40;;;3.20;;
17564;SDS011;62994;52.126;5.596;2023-03-01T15:39:26;3.75;;;3.30;;
17564;SDS011;62994;52.126;5.596;2023-03-01T15:42:02;3.08;;;2.88;;